createdAt,value
2019-04-28T00:00:01.459Z,96.00
2019-04-28T00:04:05.558Z,95.90
2019-04-28T00:08:07.635Z,95.90
2019-04-28T00:12:10.978Z,95.50
2019-04-28T00:16:13.119Z,95.90
2019-04-28T00:20:21.319Z,95.30
2019-04-28T00:24:25.057Z,95.20
2019-04-28T00:28:26.936Z,95.50
2019-04-28T00:32:30.491Z,95.70
2019-04-28T00:36:32.434Z,95.70
2019-04-28T00:40:34.574Z,95.30
2019-04-28T00:44:36.524Z,95.30
2019-04-28T00:48:38.699Z,95.60
2019-04-28T00:52:41.853Z,95.50
2019-04-28T00:56:43.894Z,95.60
2019-04-28T01:01:05.599Z,95.50
2019-04-28T01:05:11.341Z,95.60
2019-04-28T01:09:13.867Z,95.50
2019-04-28T01:13:15.763Z,95.60
2019-04-28T01:17:34.365Z,95.90
2019-04-28T01:21:37.907Z,96.10
2019-04-28T01:25:40.162Z,95.80
2019-04-28T01:29:43.602Z,95.90
2019-04-28T01:34:03.316Z,96.20
2019-04-28T01:38:05.278Z,96.30
2019-04-28T01:42:07.170Z,96.00
2019-04-28T01:46:10.171Z,96.20
2019-04-28T01:50:12.203Z,96.20
2019-04-28T01:54:14.101Z,96.40
2019-04-28T01:58:15.987Z,95.90
2019-04-28T02:02:19.788Z,95.60
2019-04-28T02:06:22.805Z,95.40
2019-04-28T02:10:24.734Z,95.40
2019-04-28T02:14:27.452Z,95.90
2019-04-28T02:18:29.926Z,95.70
2019-04-28T02:22:34.235Z,95.60
2019-04-28T02:26:36.117Z,95.60
2019-04-28T02:30:45.347Z,95.90
2019-04-28T02:34:41.977Z,96.10
2019-04-28T02:38:43.853Z,96.10
2019-04-28T02:42:45.868Z,96.50
2019-04-28T02:46:50.576Z,96.30
2019-04-28T02:51:01.234Z,96.70
2019-04-28T02:55:03.496Z,96.20
2019-04-28T02:59:06.601Z,96.60
2019-04-28T03:03:10.851Z,96.70
2019-04-28T03:07:14.660Z,96.80
2019-04-28T03:11:15.759Z,97.00
2019-04-28T03:15:20.386Z,96.70
2019-04-28T03:19:23.012Z,96.80
2019-04-28T03:23:25.086Z,96.50
2019-04-28T03:27:44.926Z,96.60
2019-04-28T03:32:28.264Z,96.70
2019-04-28T03:36:14.678Z,96.00
2019-04-28T03:40:12.645Z,96.60
2019-04-28T03:44:14.532Z,96.70
2019-04-28T03:48:16.546Z,96.90
2019-04-28T03:52:21.189Z,96.30
2019-04-28T03:56:23.325Z,96.40
2019-04-28T04:00:25.419Z,96.20
2019-04-28T04:04:27.377Z,97.00
2019-04-28T04:08:30.886Z,96.70
2019-04-28T04:12:36.962Z,96.90
2019-04-28T04:16:41.285Z,97.00
2019-04-28T04:20:43.178Z,96.80
2019-04-28T04:24:45.109Z,96.60
2019-04-28T04:28:46.987Z,97.40
2019-04-28T04:32:50.660Z,97.20
2019-04-28T04:36:52.471Z,97.10
2019-04-28T04:40:54.372Z,97.20
2019-04-28T04:44:56.344Z,97.00
2019-04-28T04:49:07.720Z,97.20
2019-04-28T04:53:11.401Z,96.80
2019-04-28T04:57:13.332Z,97.00
2019-04-28T05:01:32.724Z,97.30
2019-04-28T05:05:40.380Z,96.90
2019-04-28T05:09:43.388Z,97.00
2019-04-28T05:13:45.273Z,96.90
2019-04-28T05:17:47.170Z,96.20
2019-04-28T05:21:49.846Z,96.70
2019-04-28T05:25:51.904Z,95.90
2019-04-28T05:29:56.947Z,96.00
2019-04-28T05:33:57.606Z,95.60
2019-04-28T05:37:59.881Z,95.40
2019-04-28T05:42:01.836Z,95.80
2019-04-28T05:46:03.958Z,95.30
2019-04-28T05:50:14.489Z,95.60
2019-04-28T05:54:23.478Z,96.10
2019-04-28T05:58:32.531Z,96.00
2019-04-28T06:02:54.176Z,96.70
2019-04-28T06:06:47.002Z,96.20
2019-04-28T06:10:49.838Z,96.10
2019-04-28T06:14:52.069Z,95.90
2019-04-28T06:18:54.043Z,95.50
2019-04-28T06:22:55.990Z,95.40
2019-04-28T06:26:57.851Z,96.00
2019-04-28T06:30:59.759Z,96.50
2019-04-28T06:35:02.554Z,95.70
2019-04-28T06:39:08.212Z,95.90
2019-04-28T06:43:10.116Z,96.00
2019-04-28T06:47:12.026Z,95.90
2019-04-28T06:51:13.921Z,95.50
2019-04-28T06:55:15.874Z,95.60
2019-04-28T06:59:18.042Z,95.30
2019-04-28T07:03:23.194Z,94.60
2019-04-28T07:07:24.410Z,94.10
2019-04-28T07:11:26.296Z,93.90
2019-04-28T07:15:28.285Z,94.50
2019-04-28T07:19:30.171Z,94.50
2019-04-28T07:23:33.113Z,94.00
2019-04-28T07:27:35.008Z,93.70
2019-04-28T07:31:37.082Z,94.20
2019-04-28T07:35:38.989Z,93.30
2019-04-28T07:39:40.994Z,93.10
2019-04-28T07:43:42.915Z,93.30
2019-04-28T07:47:44.831Z,93.60
2019-04-28T07:51:51.434Z,92.40
2019-04-28T07:55:53.391Z,92.20
2019-04-28T07:59:56.527Z,92.10
2019-04-28T08:03:58.585Z,93.20
2019-04-28T08:08:00.472Z,92.10
2019-04-28T08:12:02.416Z,93.00
2019-04-28T08:16:23.159Z,93.10
2019-04-28T08:28:41.450Z,92.90
2019-04-28T08:32:47.912Z,93.00
2019-04-28T08:36:49.821Z,93.40
2019-04-28T08:40:51.794Z,92.70
2019-04-28T08:44:53.790Z,93.40
2019-04-28T08:48:55.728Z,92.30
2019-04-28T08:52:57.635Z,91.60
2019-04-28T08:56:59.531Z,92.00
2019-04-28T09:01:01.440Z,91.60
2019-04-28T09:05:03.881Z,92.90
2019-04-28T09:09:08.133Z,93.20
2019-04-28T09:13:11.253Z,93.00
2019-04-28T09:17:13.127Z,91.40
2019-04-28T09:21:15.089Z,91.30
2019-04-28T09:25:26.784Z,91.10
2019-04-28T09:29:28.762Z,90.80
2019-04-28T09:33:30.672Z,90.60
2019-04-28T09:37:32.562Z,90.50
2019-04-28T09:42:11.120Z,90.40
2019-04-28T09:46:13.500Z,89.20
2019-04-28T09:50:28.870Z,89.30
2019-04-28T09:54:30.800Z,90.40
2019-04-28T09:58:32.728Z,84.60
2019-04-28T10:02:34.757Z,84.40
2019-04-28T10:06:36.658Z,81.70
2019-04-28T10:10:38.568Z,80.40
2019-04-28T10:14:40.470Z,80.40
2019-04-28T10:18:42.520Z,78.60
2019-04-28T10:22:44.485Z,81.80
2019-04-28T10:26:46.477Z,80.20
2019-04-28T10:30:50.126Z,72.60
2019-04-28T10:34:55.125Z,67.20
2019-04-28T10:38:57.611Z,67.80
2019-04-28T10:42:59.511Z,72.80
2019-04-28T10:47:01.866Z,74.60
2019-04-28T10:51:03.921Z,75.50
2019-04-28T10:55:06.855Z,76.40
2019-04-28T10:59:08.833Z,75.40
2019-04-28T11:03:10.737Z,71.50
2019-04-28T11:07:14.463Z,70.90
2019-04-28T11:11:18.014Z,70.40
2019-04-28T11:15:33.958Z,73.80
2019-04-28T11:19:35.913Z,73.40
2019-04-28T11:23:39.379Z,68.20
2019-04-28T11:27:42.189Z,71.20
2019-04-28T11:31:44.169Z,65.70
2019-04-28T11:35:48.138Z,67.50
2019-04-28T11:39:51.151Z,68.80
2019-04-28T11:43:54.210Z,67.00
2019-04-28T11:47:56.118Z,62.50
2019-04-28T11:51:58.099Z,64.10
2019-04-28T11:56:00.520Z,68.10
2019-04-28T12:00:04.058Z,64.60
2019-04-28T12:04:07.687Z,64.10
2019-04-28T12:08:09.677Z,64.50
2019-04-28T12:12:13.223Z,69.90
2019-04-28T12:16:25.845Z,67.20
2019-04-28T12:20:27.928Z,66.30
2019-04-28T12:24:29.849Z,70.40
2019-04-28T12:28:31.776Z,69.00
2019-04-28T12:32:33.687Z,67.60
2019-04-28T12:36:35.692Z,68.10
2019-04-28T12:40:37.590Z,69.10
2019-04-28T12:44:39.558Z,70.20
2019-04-28T12:48:41.545Z,75.40
2019-04-28T12:52:43.433Z,75.80
2019-04-28T12:56:48.569Z,76.30
2019-04-28T13:01:01.685Z,76.80
2019-04-28T13:05:08.905Z,81.70
2019-04-28T13:09:10.807Z,79.90
2019-04-28T13:13:13.268Z,81.90
2019-04-28T13:17:15.172Z,83.20
2019-04-28T13:21:17.075Z,83.20
2019-04-28T13:25:18.975Z,83.80
2019-04-28T13:29:21.131Z,85.50
2019-04-28T13:33:23.037Z,82.10
2019-04-28T13:37:24.940Z,80.20
2019-04-28T13:41:26.838Z,78.40
2019-04-28T13:45:29.817Z,80.60
2019-04-28T13:49:33.353Z,80.00
2019-04-28T13:53:35.418Z,77.70
2019-04-28T13:57:37.318Z,80.60
2019-04-28T14:01:44.008Z,73.70
2019-04-28T14:06:04.071Z,69.20
2019-04-28T14:10:09.042Z,62.80
2019-04-28T14:14:10.940Z,56.70
2019-04-28T14:18:13.239Z,55.30
2019-04-28T14:22:15.231Z,59.00
2019-04-28T14:26:17.159Z,57.70
2019-04-28T14:30:19.735Z,59.00
2019-04-28T14:34:21.699Z,58.60
2019-04-28T14:38:23.640Z,58.40
2019-04-28T14:42:25.718Z,59.10
2019-04-28T14:46:27.699Z,60.80
2019-04-28T14:50:30.109Z,58.60
2019-04-28T14:54:32.141Z,57.80
2019-04-28T14:58:34.070Z,56.90
2019-04-28T15:02:40.332Z,52.90
2019-04-28T15:06:55.535Z,53.70
2019-04-28T15:10:57.685Z,52.50
2019-04-28T15:15:12.931Z,54.60
2019-04-28T15:19:14.959Z,52.80
2019-04-28T15:23:16.859Z,51.80
2019-04-28T15:27:18.774Z,48.90
2019-04-28T15:31:20.708Z,43.40
2019-04-28T15:35:22.595Z,44.30
2019-04-28T15:39:25.423Z,44.50
2019-04-28T15:43:27.349Z,44.50
2019-04-28T15:47:29.251Z,42.70
2019-04-28T15:51:32.139Z,42.70
2019-04-28T15:55:38.373Z,44.20
2019-04-28T15:59:40.323Z,43.90
2019-04-28T16:03:42.272Z,45.00
2019-04-28T16:07:44.232Z,43.80
2019-04-28T16:11:46.135Z,45.60
2019-04-28T16:15:48.411Z,46.40
2019-04-28T16:19:50.327Z,46.00
2019-04-28T16:23:52.582Z,47.10
2019-04-28T16:27:54.483Z,50.50
2019-04-28T16:31:56.529Z,52.50
2019-04-28T16:35:58.439Z,54.00
2019-04-28T16:40:00.369Z,56.30
2019-04-28T16:44:02.279Z,56.80
2019-04-28T16:48:04.192Z,59.40
2019-04-28T16:52:14.269Z,60.10
2019-04-28T16:56:15.962Z,61.20
2019-04-28T17:00:31.481Z,62.50
2019-04-28T17:04:33.685Z,60.40
2019-04-28T17:08:35.598Z,65.30
2019-04-28T17:12:37.522Z,68.10
2019-04-28T17:16:39.425Z,71.20
2019-04-28T17:20:41.681Z,73.10
2019-04-28T17:24:43.583Z,73.70
2019-04-28T17:28:46.480Z,76.00
2019-04-28T17:32:48.428Z,78.00
2019-04-28T17:36:50.348Z,78.60
2019-04-28T17:40:52.238Z,79.50
2019-04-28T17:44:54.192Z,81.60
2019-04-28T17:48:58.787Z,81.90
2019-04-28T17:53:00.693Z,80.40
2019-04-28T17:57:12.169Z,80.90
2019-04-28T18:01:21.692Z,83.70
2019-04-28T18:05:31.376Z,86.70
2019-04-28T18:09:33.322Z,87.10
2019-04-28T18:13:35.253Z,87.00
2019-04-28T18:17:47.583Z,86.30
2019-04-28T18:21:49.501Z,87.80
2019-04-28T18:25:51.387Z,89.10
2019-04-28T18:29:53.291Z,89.30
2019-04-28T18:34:13.105Z,89.20
2019-04-28T18:38:34.345Z,89.20
2019-04-28T18:42:30.404Z,90.00
2019-04-28T18:46:32.365Z,90.10
2019-04-28T18:50:34.249Z,90.30
2019-04-28T18:54:36.225Z,90.30
2019-04-28T18:58:38.133Z,90.40
2019-04-28T19:02:39.800Z,90.80
2019-04-28T19:06:42.856Z,91.20
2019-04-28T19:11:02.795Z,90.80
2019-04-28T19:15:07.481Z,90.80
2019-04-28T19:19:11.022Z,90.90
2019-04-28T19:23:26.219Z,90.90
2019-04-28T19:27:28.143Z,91.10
2019-04-28T19:31:30.125Z,91.20
2019-04-28T19:35:32.030Z,91.40
2019-04-28T19:39:33.916Z,91.60
2019-04-28T19:43:35.811Z,91.80
2019-04-28T19:47:37.711Z,91.80
2019-04-28T19:51:39.591Z,91.90
2019-04-28T19:55:49.002Z,92.40
2019-04-28T20:00:08.750Z,92.50
2019-04-28T20:04:12.236Z,92.20
2019-04-28T20:08:14.160Z,92.80
2019-04-28T20:12:16.025Z,92.70
2019-04-28T20:16:17.922Z,92.80
2019-04-28T20:20:19.880Z,92.70
2019-04-28T20:24:22.859Z,92.70
2019-04-28T20:28:26.154Z,92.60
2019-04-28T20:32:29.707Z,92.80
2019-04-28T20:36:35.996Z,92.70
2019-04-28T20:40:40.508Z,93.30
2019-04-28T20:44:42.391Z,93.20
2019-04-28T20:48:44.612Z,93.00
2019-04-28T20:52:53.561Z,92.90
2019-04-28T20:56:55.451Z,93.10
2019-04-28T21:00:57.339Z,93.00
2019-04-28T21:04:59.245Z,92.90
2019-04-28T21:09:01.895Z,92.90
2019-04-28T21:13:05.623Z,93.00
2019-04-28T21:17:07.497Z,93.30
2019-04-28T21:21:09.716Z,93.20
2019-04-28T21:25:11.929Z,93.60
2019-04-28T21:29:13.833Z,94.10
2019-04-28T21:33:16.036Z,94.30
2019-04-28T21:37:18.584Z,94.40
2019-04-28T21:41:20.633Z,94.40
2019-04-28T21:45:27.188Z,94.40
2019-04-28T21:49:30.855Z,94.80
2019-04-28T21:53:32.753Z,94.80
2019-04-28T21:57:34.648Z,94.50
2019-04-28T22:01:36.908Z,94.50
2019-04-28T22:05:39.912Z,95.00
2019-04-28T22:09:41.818Z,95.60
2019-04-28T22:13:45.321Z,95.50
2019-04-28T22:17:47.225Z,95.60
2019-04-28T22:21:49.198Z,95.30
2019-04-28T22:25:51.077Z,95.30
2019-04-28T22:29:52.980Z,95.10
2019-04-28T22:33:54.892Z,95.40
2019-04-28T22:37:56.776Z,95.40
2019-04-28T22:41:58.671Z,95.70
2019-04-28T22:46:00.563Z,95.80
2019-04-28T22:50:02.533Z,95.70
2019-04-28T22:54:09.590Z,96.00
2019-04-28T22:58:31.934Z,95.60
2019-04-28T23:02:33.853Z,95.60
2019-04-28T23:06:35.918Z,95.90
2019-04-28T23:10:37.823Z,95.50
2019-04-28T23:14:39.779Z,95.50
2019-04-28T23:18:41.681Z,95.50
2019-04-28T23:22:47.140Z,95.70
2019-04-28T23:26:48.873Z,95.60
2019-04-28T23:30:50.837Z,95.60
2019-04-28T23:34:52.741Z,96.00
2019-04-28T23:38:54.627Z,95.90
2019-04-28T23:42:58.161Z,95.90
2019-04-28T23:47:01.533Z,95.70
2019-04-28T23:51:03.198Z,95.30
2019-04-28T23:55:08.846Z,95.10
2019-04-28T23:59:10.731Z,95.10
